sensor_id;sensor_type;location;lat;lon;timestamp;P1;durP1;ratioP1;P2;durP2;ratioP2
32760;SDS011;19126;47.472;7.850;2024-01-15T00:00:08;53.50;;;24.17;;
32760;SDS011;19126;47.472;7.850;2024-01-15T00:02:38;52.35;;;25.67;;
32760;SDS011;19126;47.472;7.850;2024-01-15T00:05:06;50.58;;;23.48;;
32760;SDS011;19126;47.472;7.850;2024-01-15T00:07:33;49.67;;;22.60;;
32760;SDS011;19126;47.472;7.850;2024-01-15T00:10:01;47.67;;;21.33;;
32760;SDS011;19126;47.472;7.850;2024-01-15T00:12:29;45.50;;;22.15;;
32760;SDS011;19126;47.472;7.850;2024-01-15T00:14:57;43.53;;;21.63;;
32760;SDS011;19126;47.472;7.850;2024-01-15T00:17:24;42.15;;;20.70;;
32760;SDS011;19126;47.472;7.850;2024-01-15T00:19:52;43.10;;;21.08;;
32760;SDS011;19126;47.472;7.850;2024-01-15T00:22:20;45.50;;;22.83;;
32760;SDS011;19126;47.472;7.850;2024-01-15T00:24:47;40.63;;;20.95;;
32760;SDS011;19126;47.472;7.850;2024-01-15T00:27:14;50.05;;;22.98;;
32760;SDS011;19126;47.472;7.850;2024-01-15T00:29:41;52.05;;;23.17;;
32760;SDS011;19126;47.472;7.850;2024-01-15T00:32:09;53.03;;;23.10;;
32760;SDS011;19126;47.472;7.850;2024-01-15T00:34:36;56.22;;;24.80;;
32760;SDS011;19126;47.472;7.850;2024-01-15T00:37:05;57.28;;;26.17;;
32760;SDS011;19126;47.472;7.850;2024-01-15T00:39:32;54.08;;;23.88;;
32760;SDS011;19126;47.472;7.850;2024-01-15T00:42:00;61.40;;;26.58;;
32760;SDS011;19126;47.472;7.850;2024-01-15T00:44:28;67.82;;;27.90;;
32760;SDS011;19126;47.472;7.850;2024-01-15T00:46:55;64.78;;;28.13;;
32760;SDS011;19126;47.472;7.850;2024-01-15T00:49:22;62.63;;;27.65;;
32760;SDS011;19126;47.472;7.850;2024-01-15T00:51:50;72.07;;;30.67;;
32760;SDS011;19126;47.472;7.850;2024-01-15T00:54:18;67.88;;;29.38;;
32760;SDS011;19126;47.472;7.850;2024-01-15T00:56:46;77.07;;;30.70;;
32760;SDS011;19126;47.472;7.850;2024-01-15T00:59:13;70.25;;;29.98;;
32760;SDS011;19126;47.472;7.850;2024-01-15T01:04:45;73.97;;;30.92;;
32760;SDS011;19126;47.472;7.850;2024-01-15T01:07:12;79.95;;;34.22;;
32760;SDS011;19126;47.472;7.850;2024-01-15T01:09:41;81.97;;;33.00;;
32760;SDS011;19126;47.472;7.850;2024-01-15T01:12:09;78.18;;;33.40;;
32760;SDS011;19126;47.472;7.850;2024-01-15T01:14:37;81.10;;;32.72;;
32760;SDS011;19126;47.472;7.850;2024-01-15T01:17:04;75.22;;;29.90;;
32760;SDS011;19126;47.472;7.850;2024-01-15T01:19:31;82.70;;;33.80;;
32760;SDS011;19126;47.472;7.850;2024-01-15T01:21:58;82.05;;;35.22;;
32760;SDS011;19126;47.472;7.850;2024-01-15T01:24:26;77.50;;;33.40;;
32760;SDS011;19126;47.472;7.850;2024-01-15T01:26:54;82.95;;;34.30;;
32760;SDS011;19126;47.472;7.850;2024-01-15T01:29:22;96.43;;;36.72;;
32760;SDS011;19126;47.472;7.850;2024-01-15T01:31:49;94.65;;;36.30;;
32760;SDS011;19126;47.472;7.850;2024-01-15T01:34:16;92.20;;;35.08;;
32760;SDS011;19126;47.472;7.850;2024-01-15T01:36:43;97.72;;;38.78;;
32760;SDS011;19126;47.472;7.850;2024-01-15T01:39:11;90.13;;;36.15;;
32760;SDS011;19126;47.472;7.850;2024-01-15T01:41:39;98.65;;;37.60;;
32760;SDS011;19126;47.472;7.850;2024-01-15T01:44:08;103.80;;;39.85;;
32760;SDS011;19126;47.472;7.850;2024-01-15T01:46:35;102.75;;;37.80;;
32760;SDS011;19126;47.472;7.850;2024-01-15T01:49:05;111.32;;;41.35;;
32760;SDS011;19126;47.472;7.850;2024-01-15T01:51:34;124.32;;;42.63;;
32760;SDS011;19126;47.472;7.850;2024-01-15T01:54:04;116.10;;;42.45;;
32760;SDS011;19126;47.472;7.850;2024-01-15T01:56:34;109.25;;;40.85;;
32760;SDS011;19126;47.472;7.850;2024-01-15T01:59:02;118.47;;;39.92;;
32760;SDS011;19126;47.472;7.850;2024-01-15T02:01:31;109.95;;;39.28;;
32760;SDS011;19126;47.472;7.850;2024-01-15T02:03:58;118.57;;;39.40;;
32760;SDS011;19126;47.472;7.850;2024-01-15T02:06:28;91.85;;;33.38;;
32760;SDS011;19126;47.472;7.850;2024-01-15T02:08:55;104.28;;;36.85;;
32760;SDS011;19126;47.472;7.850;2024-01-15T02:11:23;114.35;;;38.67;;
32760;SDS011;19126;47.472;7.850;2024-01-15T02:13:50;123.10;;;42.22;;
32760;SDS011;19126;47.472;7.850;2024-01-15T02:16:18;115.85;;;41.20;;
32760;SDS011;19126;47.472;7.850;2024-01-15T02:18:47;106.63;;;39.65;;
32760;SDS011;19126;47.472;7.850;2024-01-15T02:21:14;107.40;;;40.42;;
32760;SDS011;19126;47.472;7.850;2024-01-15T02:23:43;97.35;;;37.75;;
32760;SDS011;19126;47.472;7.850;2024-01-15T02:26:10;100.18;;;37.58;;
32760;SDS011;19126;47.472;7.850;2024-01-15T02:28:38;104.95;;;38.85;;
32760;SDS011;19126;47.472;7.850;2024-01-15T02:31:06;93.10;;;35.42;;
32760;SDS011;19126;47.472;7.850;2024-01-15T02:33:34;100.32;;;33.00;;
32760;SDS011;19126;47.472;7.850;2024-01-15T02:36:01;76.53;;;31.17;;
32760;SDS011;19126;47.472;7.850;2024-01-15T02:38:29;82.57;;;32.00;;
32760;SDS011;19126;47.472;7.850;2024-01-15T02:40:58;77.30;;;30.40;;
32760;SDS011;19126;47.472;7.850;2024-01-15T02:43:25;73.70;;;29.23;;
32760;SDS011;19126;47.472;7.850;2024-01-15T02:45:52;73.60;;;29.10;;
32760;SDS011;19126;47.472;7.850;2024-01-15T02:48:20;67.57;;;28.10;;
32760;SDS011;19126;47.472;7.850;2024-01-15T02:50:47;67.22;;;27.95;;
32760;SDS011;19126;47.472;7.850;2024-01-15T02:53:14;67.45;;;27.73;;
32760;SDS011;19126;47.472;7.850;2024-01-15T02:55:42;69.10;;;27.95;;
32760;SDS011;19126;47.472;7.850;2024-01-15T02:58:10;68.88;;;28.20;;
32760;SDS011;19126;47.472;7.850;2024-01-15T03:00:38;70.35;;;28.05;;
32760;SDS011;19126;47.472;7.850;2024-01-15T03:03:05;63.42;;;26.52;;
32760;SDS011;19126;47.472;7.850;2024-01-15T03:05:32;58.80;;;24.88;;
32760;SDS011;19126;47.472;7.850;2024-01-15T03:07:59;65.65;;;27.00;;
32760;SDS011;19126;47.472;7.850;2024-01-15T03:10:27;62.15;;;23.58;;
32760;SDS011;19126;47.472;7.850;2024-01-15T03:12:54;60.20;;;24.70;;
32760;SDS011;19126;47.472;7.850;2024-01-15T03:15:23;63.45;;;25.48;;
32760;SDS011;19126;47.472;7.850;2024-01-15T03:17:50;61.05;;;25.05;;
32760;SDS011;19126;47.472;7.850;2024-01-15T03:20:17;68.95;;;27.35;;
32760;SDS011;19126;47.472;7.850;2024-01-15T03:22:45;66.68;;;26.88;;
32760;SDS011;19126;47.472;7.850;2024-01-15T03:25:12;56.22;;;24.05;;
32760;SDS011;19126;47.472;7.850;2024-01-15T03:27:39;63.13;;;24.10;;
32760;SDS011;19126;47.472;7.850;2024-01-15T03:30:07;56.35;;;23.23;;
32760;SDS011;19126;47.472;7.850;2024-01-15T03:32:36;58.70;;;23.60;;
32760;SDS011;19126;47.472;7.850;2024-01-15T03:35:04;65.97;;;24.55;;
32760;SDS011;19126;47.472;7.850;2024-01-15T03:37:32;71.10;;;25.88;;
32760;SDS011;19126;47.472;7.850;2024-01-15T03:40:00;57.97;;;22.85;;
32760;SDS011;19126;47.472;7.850;2024-01-15T03:42:28;55.30;;;23.05;;
32760;SDS011;19126;47.472;7.850;2024-01-15T03:44:55;59.13;;;23.65;;
32760;SDS011;19126;47.472;7.850;2024-01-15T03:47:22;57.95;;;23.73;;
32760;SDS011;19126;47.472;7.850;2024-01-15T03:49:51;56.70;;;23.60;;
32760;SDS011;19126;47.472;7.850;2024-01-15T03:52:18;63.67;;;24.02;;
32760;SDS011;19126;47.472;7.850;2024-01-15T03:54:46;59.63;;;22.98;;
32760;SDS011;19126;47.472;7.850;2024-01-15T03:57:13;61.58;;;23.73;;
32760;SDS011;19126;47.472;7.850;2024-01-15T03:59:40;58.22;;;22.80;;
32760;SDS011;19126;47.472;7.850;2024-01-15T04:02:10;54.35;;;22.13;;
32760;SDS011;19126;47.472;7.850;2024-01-15T04:04:49;50.15;;;21.67;;
32760;SDS011;19126;47.472;7.850;2024-01-15T04:07:23;57.50;;;23.30;;
32760;SDS011;19126;47.472;7.850;2024-01-15T04:09:54;48.97;;;21.20;;
32760;SDS011;19126;47.472;7.850;2024-01-15T04:15:59;54.35;;;21.65;;
32760;SDS011;19126;47.472;7.850;2024-01-15T04:18:41;50.20;;;21.00;;
32760;SDS011;19126;47.472;7.850;2024-01-15T04:25:12;55.72;;;23.55;;
32760;SDS011;19126;47.472;7.850;2024-01-15T04:27:42;50.70;;;22.35;;
32760;SDS011;19126;47.472;7.850;2024-01-15T04:39:59;58.83;;;23.83;;
32760;SDS011;19126;47.472;7.850;2024-01-15T04:42:35;65.13;;;25.70;;
32760;SDS011;19126;47.472;7.850;2024-01-15T04:48:20;62.50;;;24.95;;
32760;SDS011;19126;47.472;7.850;2024-01-15T04:51:09;57.72;;;24.30;;
32760;SDS011;19126;47.472;7.850;2024-01-15T04:53:53;53.90;;;23.60;;
32760;SDS011;19126;47.472;7.850;2024-01-15T05:04:00;58.90;;;24.73;;
32760;SDS011;19126;47.472;7.850;2024-01-15T05:06:28;58.95;;;22.75;;
32760;SDS011;19126;47.472;7.850;2024-01-15T05:09:01;49.47;;;21.58;;
32760;SDS011;19126;47.472;7.850;2024-01-15T05:11:40;51.00;;;19.38;;
32760;SDS011;19126;47.472;7.850;2024-01-15T05:14:07;55.88;;;23.25;;
32760;SDS011;19126;47.472;7.850;2024-01-15T05:16:34;58.53;;;23.35;;
32760;SDS011;19126;47.472;7.850;2024-01-15T05:19:04;58.35;;;22.08;;
32760;SDS011;19126;47.472;7.850;2024-01-15T05:21:34;59.33;;;22.70;;
32760;SDS011;19126;47.472;7.850;2024-01-15T05:24:03;53.20;;;20.73;;
32760;SDS011;19126;47.472;7.850;2024-01-15T05:26:30;59.50;;;22.25;;
32760;SDS011;19126;47.472;7.850;2024-01-15T05:28:58;54.58;;;22.30;;
32760;SDS011;19126;47.472;7.850;2024-01-15T05:31:25;56.20;;;21.95;;
32760;SDS011;19126;47.472;7.850;2024-01-15T05:33:53;51.72;;;21.20;;
32760;SDS011;19126;47.472;7.850;2024-01-15T05:36:22;51.45;;;21.55;;
32760;SDS011;19126;47.472;7.850;2024-01-15T05:38:49;49.67;;;20.63;;
32760;SDS011;19126;47.472;7.850;2024-01-15T05:41:19;47.78;;;21.08;;
32760;SDS011;19126;47.472;7.850;2024-01-15T05:43:46;45.63;;;19.52;;
32760;SDS011;19126;47.472;7.850;2024-01-15T05:46:13;49.25;;;20.25;;
32760;SDS011;19126;47.472;7.850;2024-01-15T05:48:41;44.67;;;19.33;;
32760;SDS011;19126;47.472;7.850;2024-01-15T05:51:10;37.65;;;16.98;;
32760;SDS011;19126;47.472;7.850;2024-01-15T05:53:41;43.25;;;18.10;;
32760;SDS011;19126;47.472;7.850;2024-01-15T05:56:09;38.08;;;17.50;;
32760;SDS011;19126;47.472;7.850;2024-01-15T05:58:41;37.22;;;17.73;;
32760;SDS011;19126;47.472;7.850;2024-01-15T06:01:11;37.38;;;15.70;;
32760;SDS011;19126;47.472;7.850;2024-01-15T06:03:38;39.17;;;16.60;;
32760;SDS011;19126;47.472;7.850;2024-01-15T06:06:05;43.13;;;17.17;;
32760;SDS011;19126;47.472;7.850;2024-01-15T06:08:40;34.28;;;16.38;;
32760;SDS011;19126;47.472;7.850;2024-01-15T06:11:07;37.78;;;16.17;;
32760;SDS011;19126;47.472;7.850;2024-01-15T06:13:35;31.17;;;15.60;;
32760;SDS011;19126;47.472;7.850;2024-01-15T06:16:13;33.20;;;14.70;;
32760;SDS011;19126;47.472;7.850;2024-01-15T06:18:41;33.50;;;15.25;;
32760;SDS011;19126;47.472;7.850;2024-01-15T06:21:08;32.92;;;15.13;;
32760;SDS011;19126;47.472;7.850;2024-01-15T06:23:37;33.78;;;15.18;;
32760;SDS011;19126;47.472;7.850;2024-01-15T06:26:05;30.92;;;15.13;;
32760;SDS011;19126;47.472;7.850;2024-01-15T06:28:32;29.05;;;13.80;;
32760;SDS011;19126;47.472;7.850;2024-01-15T06:31:01;25.92;;;12.43;;
32760;SDS011;19126;47.472;7.850;2024-01-15T06:33:29;26.92;;;13.43;;
32760;SDS011;19126;47.472;7.850;2024-01-15T06:35:58;32.40;;;13.88;;
32760;SDS011;19126;47.472;7.850;2024-01-15T06:38:25;29.92;;;13.27;;
32760;SDS011;19126;47.472;7.850;2024-01-15T06:40:53;26.52;;;11.70;;
32760;SDS011;19126;47.472;7.850;2024-01-15T06:43:22;28.92;;;12.10;;
32760;SDS011;19126;47.472;7.850;2024-01-15T06:45:49;24.88;;;11.48;;
32760;SDS011;19126;47.472;7.850;2024-01-15T06:48:18;25.02;;;10.65;;
32760;SDS011;19126;47.472;7.850;2024-01-15T06:50:46;21.13;;;10.35;;
32760;SDS011;19126;47.472;7.850;2024-01-15T06:53:13;21.23;;;11.48;;
32760;SDS011;19126;47.472;7.850;2024-01-15T06:55:40;26.23;;;11.25;;
32760;SDS011;19126;47.472;7.850;2024-01-15T06:58:08;31.38;;;14.68;;
32760;SDS011;19126;47.472;7.850;2024-01-15T07:00:35;25.63;;;11.23;;
32760;SDS011;19126;47.472;7.850;2024-01-15T07:03:03;25.00;;;11.27;;
32760;SDS011;19126;47.472;7.850;2024-01-15T07:05:32;28.52;;;11.20;;
32760;SDS011;19126;47.472;7.850;2024-01-15T07:07:59;25.63;;;12.23;;
32760;SDS011;19126;47.472;7.850;2024-01-15T07:10:26;27.48;;;13.15;;
32760;SDS011;19126;47.472;7.850;2024-01-15T07:12:54;30.30;;;13.85;;
32760;SDS011;19126;47.472;7.850;2024-01-15T07:15:21;32.15;;;15.05;;
32760;SDS011;19126;47.472;7.850;2024-01-15T07:17:49;30.52;;;13.90;;
32760;SDS011;19126;47.472;7.850;2024-01-15T07:20:16;35.97;;;14.10;;
32760;SDS011;19126;47.472;7.850;2024-01-15T07:22:45;34.78;;;13.98;;
32760;SDS011;19126;47.472;7.850;2024-01-15T07:25:13;30.15;;;13.82;;
32760;SDS011;19126;47.472;7.850;2024-01-15T07:27:41;33.75;;;15.23;;
32760;SDS011;19126;47.472;7.850;2024-01-15T07:30:10;26.92;;;12.10;;
32760;SDS011;19126;47.472;7.850;2024-01-15T07:32:38;28.23;;;13.40;;
32760;SDS011;19126;47.472;7.850;2024-01-15T07:35:05;35.08;;;12.40;;
32760;SDS011;19126;47.472;7.850;2024-01-15T07:37:33;26.55;;;13.10;;
32760;SDS011;19126;47.472;7.850;2024-01-15T07:40:02;25.52;;;11.90;;
32760;SDS011;19126;47.472;7.850;2024-01-15T07:42:31;23.73;;;11.32;;
32760;SDS011;19126;47.472;7.850;2024-01-15T07:44:59;24.08;;;9.90;;
32760;SDS011;19126;47.472;7.850;2024-01-15T07:47:27;26.35;;;12.23;;
32760;SDS011;19126;47.472;7.850;2024-01-15T07:49:55;27.52;;;12.13;;
32760;SDS011;19126;47.472;7.850;2024-01-15T07:52:23;26.98;;;11.10;;
32760;SDS011;19126;47.472;7.850;2024-01-15T07:54:50;23.38;;;10.07;;
32760;SDS011;19126;47.472;7.850;2024-01-15T07:57:19;23.65;;;10.95;;
32760;SDS011;19126;47.472;7.850;2024-01-15T07:59:46;31.38;;;12.00;;
32760;SDS011;19126;47.472;7.850;2024-01-15T08:02:14;24.40;;;9.50;;
32760;SDS011;19126;47.472;7.850;2024-01-15T08:04:41;23.70;;;10.93;;
32760;SDS011;19126;47.472;7.850;2024-01-15T08:07:09;26.38;;;10.25;;
32760;SDS011;19126;47.472;7.850;2024-01-15T08:09:38;23.70;;;9.95;;
32760;SDS011;19126;47.472;7.850;2024-01-15T08:12:05;24.95;;;9.82;;
32760;SDS011;19126;47.472;7.850;2024-01-15T08:14:36;24.58;;;9.73;;
32760;SDS011;19126;47.472;7.850;2024-01-15T08:17:04;23.05;;;10.55;;
32760;SDS011;19126;47.472;7.850;2024-01-15T08:19:31;24.48;;;10.23;;
32760;SDS011;19126;47.472;7.850;2024-01-15T08:21:58;20.63;;;10.02;;
32760;SDS011;19126;47.472;7.850;2024-01-15T08:24:26;18.15;;;9.45;;
32760;SDS011;19126;47.472;7.850;2024-01-15T08:26:53;22.83;;;9.68;;
32760;SDS011;19126;47.472;7.850;2024-01-15T08:29:21;27.63;;;9.13;;
32760;SDS011;19126;47.472;7.850;2024-01-15T08:31:51;18.23;;;7.90;;
32760;SDS011;19126;47.472;7.850;2024-01-15T08:34:18;16.50;;;8.13;;
32760;SDS011;19126;47.472;7.850;2024-01-15T08:36:46;19.00;;;8.30;;
32760;SDS011;19126;47.472;7.850;2024-01-15T08:39:13;20.58;;;9.35;;
32760;SDS011;19126;47.472;7.850;2024-01-15T08:41:40;18.35;;;8.85;;
32760;SDS011;19126;47.472;7.850;2024-01-15T08:44:08;24.50;;;10.45;;
32760;SDS011;19126;47.472;7.850;2024-01-15T08:46:35;18.80;;;8.75;;
32760;SDS011;19126;47.472;7.850;2024-01-15T08:49:06;22.88;;;9.13;;
32760;SDS011;19126;47.472;7.850;2024-01-15T08:51:33;16.90;;;8.77;;
32760;SDS011;19126;47.472;7.850;2024-01-15T08:54:01;18.27;;;8.80;;
32760;SDS011;19126;47.472;7.850;2024-01-15T08:56:28;18.25;;;9.32;;
32760;SDS011;19126;47.472;7.850;2024-01-15T08:58:58;23.00;;;10.23;;
32760;SDS011;19126;47.472;7.850;2024-01-15T09:01:25;20.13;;;9.75;;
32760;SDS011;19126;47.472;7.850;2024-01-15T09:03:53;20.40;;;9.82;;
32760;SDS011;19126;47.472;7.850;2024-01-15T09:06:21;17.05;;;8.75;;
32760;SDS011;19126;47.472;7.850;2024-01-15T09:08:50;20.80;;;9.50;;
32760;SDS011;19126;47.472;7.850;2024-01-15T09:11:18;19.08;;;9.02;;
32760;SDS011;19126;47.472;7.850;2024-01-15T09:13:47;18.77;;;9.02;;
32760;SDS011;19126;47.472;7.850;2024-01-15T09:16:14;21.35;;;9.90;;
32760;SDS011;19126;47.472;7.850;2024-01-15T09:18:42;19.45;;;9.27;;
32760;SDS011;19126;47.472;7.850;2024-01-15T09:21:09;23.98;;;10.35;;
32760;SDS011;19126;47.472;7.850;2024-01-15T09:23:38;20.83;;;10.15;;
32760;SDS011;19126;47.472;7.850;2024-01-15T09:26:07;23.50;;;10.88;;
32760;SDS011;19126;47.472;7.850;2024-01-15T09:28:35;22.45;;;10.13;;
32760;SDS011;19126;47.472;7.850;2024-01-15T09:31:02;23.05;;;10.25;;
32760;SDS011;19126;47.472;7.850;2024-01-15T09:33:30;19.15;;;8.93;;
32760;SDS011;19126;47.472;7.850;2024-01-15T09:36:00;17.88;;;8.48;;
32760;SDS011;19126;47.472;7.850;2024-01-15T09:38:31;17.50;;;9.48;;
32760;SDS011;19126;47.472;7.850;2024-01-15T09:40:59;21.45;;;9.65;;
32760;SDS011;19126;47.472;7.850;2024-01-15T09:43:27;20.25;;;10.35;;
32760;SDS011;19126;47.472;7.850;2024-01-15T09:45:54;20.42;;;9.70;;
32760;SDS011;19126;47.472;7.850;2024-01-15T09:48:22;18.65;;;8.88;;
32760;SDS011;19126;47.472;7.850;2024-01-15T09:50:49;21.90;;;10.90;;
32760;SDS011;19126;47.472;7.850;2024-01-15T09:53:18;22.20;;;10.00;;
32760;SDS011;19126;47.472;7.850;2024-01-15T09:55:46;19.38;;;9.00;;
32760;SDS011;19126;47.472;7.850;2024-01-15T09:58:17;20.80;;;9.90;;
32760;SDS011;19126;47.472;7.850;2024-01-15T10:00:45;18.88;;;9.00;;
32760;SDS011;19126;47.472;7.850;2024-01-15T10:03:15;20.63;;;9.82;;
32760;SDS011;19126;47.472;7.850;2024-01-15T10:05:43;20.13;;;9.55;;
32760;SDS011;19126;47.472;7.850;2024-01-15T10:08:10;15.43;;;7.93;;
32760;SDS011;19126;47.472;7.850;2024-01-15T10:10:39;17.60;;;8.65;;
32760;SDS011;19126;47.472;7.850;2024-01-15T10:13:09;16.90;;;8.23;;
32760;SDS011;19126;47.472;7.850;2024-01-15T10:15:39;15.05;;;7.80;;
32760;SDS011;19126;47.472;7.850;2024-01-15T10:18:08;16.65;;;7.72;;
32760;SDS011;19126;47.472;7.850;2024-01-15T10:20:36;12.25;;;7.07;;
32760;SDS011;19126;47.472;7.850;2024-01-15T10:23:03;11.93;;;7.05;;
32760;SDS011;19126;47.472;7.850;2024-01-15T10:25:31;15.25;;;7.70;;
32760;SDS011;19126;47.472;7.850;2024-01-15T10:27:59;12.35;;;6.60;;
32760;SDS011;19126;47.472;7.850;2024-01-15T10:30:28;14.30;;;6.57;;
32760;SDS011;19126;47.472;7.850;2024-01-15T10:33:00;12.23;;;6.85;;
32760;SDS011;19126;47.472;7.850;2024-01-15T10:35:30;16.08;;;6.20;;
32760;SDS011;19126;47.472;7.850;2024-01-15T10:37:59;15.35;;;5.82;;
32760;SDS011;19126;47.472;7.850;2024-01-15T10:40:27;10.75;;;5.72;;
32760;SDS011;19126;47.472;7.850;2024-01-15T10:42:58;9.48;;;5.28;;
32760;SDS011;19126;47.472;7.850;2024-01-15T10:45:25;9.95;;;5.57;;
32760;SDS011;19126;47.472;7.850;2024-01-15T10:47:52;11.70;;;5.90;;
32760;SDS011;19126;47.472;7.850;2024-01-15T10:50:25;10.75;;;5.88;;
32760;SDS011;19126;47.472;7.850;2024-01-15T10:52:53;9.88;;;5.35;;
32760;SDS011;19126;47.472;7.850;2024-01-15T10:55:21;9.93;;;5.07;;
32760;SDS011;19126;47.472;7.850;2024-01-15T10:57:49;7.63;;;4.22;;
32760;SDS011;19126;47.472;7.850;2024-01-15T11:00:18;8.10;;;4.03;;
32760;SDS011;19126;47.472;7.850;2024-01-15T11:02:46;6.53;;;3.97;;
32760;SDS011;19126;47.472;7.850;2024-01-15T11:05:14;6.78;;;3.17;;
32760;SDS011;19126;47.472;7.850;2024-01-15T11:07:44;5.80;;;4.00;;
32760;SDS011;19126;47.472;7.850;2024-01-15T11:13:15;7.40;;;3.75;;
32760;SDS011;19126;47.472;7.850;2024-01-15T11:15:56;7.97;;;3.83;;
32760;SDS011;19126;47.472;7.850;2024-01-15T11:18:28;8.07;;;4.38;;
32760;SDS011;19126;47.472;7.850;2024-01-15T11:21:20;9.60;;;4.13;;
32760;SDS011;19126;47.472;7.850;2024-01-15T11:23:55;8.85;;;3.47;;
32760;SDS011;19126;47.472;7.850;2024-01-15T11:26:32;6.90;;;4.13;;
32760;SDS011;19126;47.472;7.850;2024-01-15T11:29:03;6.13;;;3.97;;
32760;SDS011;19126;47.472;7.850;2024-01-15T11:37:23;6.43;;;4.15;;
32760;SDS011;19126;47.472;7.850;2024-01-15T11:39:56;7.25;;;4.40;;
32760;SDS011;19126;47.472;7.850;2024-01-15T11:42:30;7.47;;;4.10;;
32760;SDS011;19126;47.472;7.850;2024-01-15T11:44:57;8.77;;;5.30;;
32760;SDS011;19126;47.472;7.850;2024-01-15T11:50:39;12.75;;;6.28;;
32760;SDS011;19126;47.472;7.850;2024-01-15T11:53:16;23.33;;;9.57;;
32760;SDS011;19126;47.472;7.850;2024-01-15T11:55:55;32.30;;;13.60;;
32760;SDS011;19126;47.472;7.850;2024-01-15T11:58:25;29.63;;;14.90;;
32760;SDS011;19126;47.472;7.850;2024-01-15T12:00:55;31.55;;;15.27;;
32760;SDS011;19126;47.472;7.850;2024-01-15T12:03:22;30.77;;;15.77;;
32760;SDS011;19126;47.472;7.850;2024-01-15T12:05:51;47.03;;;17.35;;
32760;SDS011;19126;47.472;7.850;2024-01-15T12:08:22;38.38;;;17.98;;
32760;SDS011;19126;47.472;7.850;2024-01-15T12:10:50;42.83;;;18.65;;
32760;SDS011;19126;47.472;7.850;2024-01-15T12:13:19;42.13;;;20.55;;
32760;SDS011;19126;47.472;7.850;2024-01-15T12:15:47;49.33;;;19.75;;
32760;SDS011;19126;47.472;7.850;2024-01-15T12:18:15;49.65;;;22.35;;
32760;SDS011;19126;47.472;7.850;2024-01-15T12:20:45;51.00;;;22.05;;
32760;SDS011;19126;47.472;7.850;2024-01-15T12:23:13;53.53;;;23.55;;
32760;SDS011;19126;47.472;7.850;2024-01-15T12:25:41;50.13;;;22.88;;
32760;SDS011;19126;47.472;7.850;2024-01-15T12:28:09;49.30;;;23.90;;
32760;SDS011;19126;47.472;7.850;2024-01-15T12:30:38;53.17;;;23.10;;
32760;SDS011;19126;47.472;7.850;2024-01-15T12:33:06;49.90;;;22.60;;
32760;SDS011;19126;47.472;7.850;2024-01-15T12:35:35;55.65;;;23.65;;
32760;SDS011;19126;47.472;7.850;2024-01-15T12:38:03;52.33;;;23.48;;
32760;SDS011;19126;47.472;7.850;2024-01-15T12:40:31;56.00;;;24.85;;
32760;SDS011;19126;47.472;7.850;2024-01-15T12:42:59;56.08;;;25.58;;
32760;SDS011;19126;47.472;7.850;2024-01-15T12:45:27;56.35;;;25.90;;
32760;SDS011;19126;47.472;7.850;2024-01-15T12:47:59;52.75;;;24.52;;
32760;SDS011;19126;47.472;7.850;2024-01-15T12:50:28;56.55;;;24.73;;
32760;SDS011;19126;47.472;7.850;2024-01-15T12:52:55;50.97;;;25.35;;
32760;SDS011;19126;47.472;7.850;2024-01-15T12:55:24;53.78;;;25.25;;
32760;SDS011;19126;47.472;7.850;2024-01-15T12:57:52;55.63;;;24.30;;
32760;SDS011;19126;47.472;7.850;2024-01-15T13:00:20;55.50;;;25.50;;
32760;SDS011;19126;47.472;7.850;2024-01-15T13:02:47;51.53;;;24.88;;
32760;SDS011;19126;47.472;7.850;2024-01-15T13:05:17;60.70;;;26.25;;
32760;SDS011;19126;47.472;7.850;2024-01-15T13:07:46;52.63;;;24.17;;
32760;SDS011;19126;47.472;7.850;2024-01-15T13:10:13;59.80;;;26.65;;
32760;SDS011;19126;47.472;7.850;2024-01-15T13:12:41;53.33;;;24.63;;
32760;SDS011;19126;47.472;7.850;2024-01-15T13:15:08;60.45;;;26.50;;
32760;SDS011;19126;47.472;7.850;2024-01-15T13:17:37;59.38;;;26.85;;
32760;SDS011;19126;47.472;7.850;2024-01-15T13:20:05;56.70;;;25.23;;
32760;SDS011;19126;47.472;7.850;2024-01-15T13:22:37;57.88;;;25.80;;
32760;SDS011;19126;47.472;7.850;2024-01-15T13:25:05;54.97;;;24.13;;
32760;SDS011;19126;47.472;7.850;2024-01-15T13:27:34;56.05;;;25.20;;
32760;SDS011;19126;47.472;7.850;2024-01-15T13:30:01;57.38;;;25.25;;
32760;SDS011;19126;47.472;7.850;2024-01-15T13:32:32;57.28;;;24.63;;
32760;SDS011;19126;47.472;7.850;2024-01-15T13:35:00;57.22;;;26.27;;
32760;SDS011;19126;47.472;7.850;2024-01-15T13:37:32;55.42;;;24.55;;
32760;SDS011;19126;47.472;7.850;2024-01-15T13:40:04;53.28;;;24.92;;
32760;SDS011;19126;47.472;7.850;2024-01-15T13:42:34;48.80;;;23.65;;
32760;SDS011;19126;47.472;7.850;2024-01-15T13:45:07;60.10;;;24.38;;
32760;SDS011;19126;47.472;7.850;2024-01-15T13:47:35;49.60;;;23.73;;
32760;SDS011;19126;47.472;7.850;2024-01-15T13:50:04;50.53;;;23.52;;
32760;SDS011;19126;47.472;7.850;2024-01-15T13:52:33;55.95;;;25.83;;
32760;SDS011;19126;47.472;7.850;2024-01-15T13:55:04;55.58;;;24.92;;
32760;SDS011;19126;47.472;7.850;2024-01-15T13:57:33;52.13;;;25.35;;
32760;SDS011;19126;47.472;7.850;2024-01-15T14:00:02;61.88;;;25.85;;
32760;SDS011;19126;47.472;7.850;2024-01-15T14:02:36;55.08;;;26.27;;
32760;SDS011;19126;47.472;7.850;2024-01-15T14:05:03;52.58;;;23.30;;
32760;SDS011;19126;47.472;7.850;2024-01-15T14:07:32;67.18;;;27.17;;
32760;SDS011;19126;47.472;7.850;2024-01-15T14:10:00;57.88;;;26.38;;
32760;SDS011;19126;47.472;7.850;2024-01-15T14:12:33;61.40;;;27.27;;
32760;SDS011;19126;47.472;7.850;2024-01-15T14:17:31;51.42;;;24.65;;
32760;SDS011;19126;47.472;7.850;2024-01-15T14:19:58;59.33;;;24.38;;
32760;SDS011;19126;47.472;7.850;2024-01-15T14:22:26;57.78;;;25.98;;
32760;SDS011;19126;47.472;7.850;2024-01-15T14:24:53;58.85;;;24.77;;
32760;SDS011;19126;47.472;7.850;2024-01-15T14:27:20;51.00;;;22.58;;
32760;SDS011;19126;47.472;7.850;2024-01-15T14:29:51;49.10;;;21.52;;
32760;SDS011;19126;47.472;7.850;2024-01-15T14:32:18;48.77;;;21.20;;
32760;SDS011;19126;47.472;7.850;2024-01-15T14:34:47;43.13;;;19.80;;
32760;SDS011;19126;47.472;7.850;2024-01-15T14:37:14;39.45;;;18.45;;
32760;SDS011;19126;47.472;7.850;2024-01-15T14:39:41;41.50;;;17.85;;
32760;SDS011;19126;47.472;7.850;2024-01-15T14:42:09;37.25;;;17.23;;
32760;SDS011;19126;47.472;7.850;2024-01-15T14:44:37;38.00;;;16.50;;
32760;SDS011;19126;47.472;7.850;2024-01-15T14:47:07;34.33;;;14.90;;
32760;SDS011;19126;47.472;7.850;2024-01-15T14:49:34;36.92;;;16.70;;
32760;SDS011;19126;47.472;7.850;2024-01-15T14:52:02;37.70;;;15.85;;
32760;SDS011;19126;47.472;7.850;2024-01-15T14:54:30;31.35;;;13.75;;
32760;SDS011;19126;47.472;7.850;2024-01-15T14:56:57;30.63;;;14.05;;
32760;SDS011;19126;47.472;7.850;2024-01-15T14:59:24;27.77;;;13.27;;
32760;SDS011;19126;47.472;7.850;2024-01-15T15:01:53;23.05;;;12.13;;
32760;SDS011;19126;47.472;7.850;2024-01-15T15:04:24;28.52;;;12.85;;
32760;SDS011;19126;47.472;7.850;2024-01-15T15:06:53;32.75;;;13.13;;
32760;SDS011;19126;47.472;7.850;2024-01-15T15:09:21;25.15;;;11.82;;
32760;SDS011;19126;47.472;7.850;2024-01-15T15:11:48;26.70;;;12.30;;
32760;SDS011;19126;47.472;7.850;2024-01-15T15:14:17;29.42;;;13.45;;
32760;SDS011;19126;47.472;7.850;2024-01-15T15:16:45;28.08;;;13.15;;